sensor_id;sensor_type;location;lat;lon;timestamp;pressure;altitude;pressure_sealevel;temperature;humidity
40013;BME280;37387;42.672;23.334;2023-04-16T00:04:32;938.9;;;11.1;78.9
40013;BME280;37387;42.672;23.334;2023-04-16T00:08:32;938.8;;;11.0;79.9
40013;BME280;37387;42.672;23.334;2023-04-16T00:13:33;938.8;;;10.9;81.1
40013;BME280;37387;42.672;23.334;2023-04-16T00:24:32;938.8;;;10.8;84.1
40013;BME280;37387;42.672;23.334;2023-04-16T00:29:32;938.8;;;10.6;85.5
40013;BME280;37387;42.672;23.334;2023-04-16T00:30:32;938.8;;;10.5;87.6
40013;BME280;37387;42.672;23.334;2023-04-16T00:34:32;938.8;;;10.6;86.6
40013;BME280;37387;42.672;23.334;2023-04-16T00:39:32;938.8;;;10.5;86.8
40013;BME280;37387;42.672;23.334;2023-04-16T00:42:32;938.8;;;10.4;87.9
40013;BME280;37387;42.672;23.334;2023-04-16T00:43:32;938.8;;;10.5;88.3
40013;BME280;37387;42.672;23.334;2023-04-16T00:45:32;938.8;;;10.4;88.3
40013;BME280;37387;42.672;23.334;2023-04-16T00:47:32;938.7;;;10.3;90.4
40013;BME280;37387;42.672;23.334;2023-04-16T00:52:32;938.7;;;10.2;92.6
40013;BME280;37387;42.672;23.334;2023-04-16T00:58:32;938.7;;;10.1;99.0
40013;BME280;37387;42.672;23.334;2023-04-16T01:01:32;938.7;;;10.0;100.0
40013;BME280;37387;42.672;23.334;2023-04-16T01:05:32;938.7;;;9.9;100.0
40013;BME280;37387;42.672;23.334;2023-04-16T01:09:32;938.7;;;9.8;100.0
40013;BME280;37387;42.672;23.334;2023-04-16T01:10:32;938.7;;;9.7;100.0
40013;BME280;37387;42.672;23.334;2023-04-16T01:16:32;938.7;;;9.6;100.0
40013;BME280;37387;42.672;23.334;2023-04-16T01:22:32;938.7;;;9.5;100.0
40013;BME280;37387;42.672;23.334;2023-04-16T01:29:32;938.7;;;9.4;100.0
40013;BME280;37387;42.672;23.334;2023-04-16T01:36:32;938.6;;;9.3;100.0
40013;BME280;37387;42.672;23.334;2023-04-16T01:50:32;938.5;;;9.2;100.0
40013;BME280;37387;42.672;23.334;2023-04-16T01:52:32;938.4;;;9.1;100.0
40013;BME280;37387;42.672;23.334;2023-04-16T01:55:32;938.5;;;9.0;100.0
40013;BME280;37387;42.672;23.334;2023-04-16T02:13:32;938.5;;;9.1;100.0
40013;BME280;37387;42.672;23.334;2023-04-16T02:19:32;938.5;;;9.2;100.0
40013;BME280;37387;42.672;23.334;2023-04-16T02:20:32;938.5;;;9.1;100.0
40013;BME280;37387;42.672;23.334;2023-04-16T02:23:32;938.5;;;9.2;100.0
40013;BME280;37387;42.672;23.334;2023-04-16T02:29:32;938.4;;;9.1;100.0
40013;BME280;37387;42.672;23.334;2023-04-16T02:31:32;938.5;;;9.2;100.0
40013;BME280;37387;42.672;23.334;2023-04-16T02:32:32;938.4;;;9.1;100.0
40013;BME280;37387;42.672;23.334;2023-04-16T02:35:32;938.4;;;9.0;99.6
40013;BME280;37387;42.672;23.334;2023-04-16T02:36:32;938.4;;;9.1;98.2
40013;BME280;37387;42.672;23.334;2023-04-16T02:38:32;938.4;;;9.0;100.0
40013;BME280;37387;42.672;23.334;2023-04-16T02:41:32;938.4;;;8.9;98.9
40013;BME280;37387;42.672;23.334;2023-04-16T02:42:32;938.4;;;9.0;98.9
40013;BME280;37387;42.672;23.334;2023-04-16T02:47:32;938.3;;;8.9;94.8
40013;BME280;37387;42.672;23.334;2023-04-16T02:49:32;938.3;;;9.0;95.0
40013;BME280;37387;42.672;23.334;2023-04-16T02:50:32;938.3;;;8.9;94.3
40013;BME280;37387;42.672;23.334;2023-04-16T02:53:32;938.3;;;8.8;94.1
40013;BME280;37387;42.672;23.334;2023-04-16T02:54:32;938.3;;;8.9;95.5
40013;BME280;37387;42.672;23.334;2023-04-16T02:59:32;938.3;;;9.0;96.7
40013;BME280;37387;42.672;23.334;2023-04-16T03:02:32;938.3;;;8.9;96.1
40013;BME280;37387;42.672;23.334;2023-04-16T03:13:32;938.3;;;9.0;92.8
40013;BME280;37387;42.672;23.334;2023-04-16T03:22:32;938.4;;;9.1;92.3
40013;BME280;37387;42.672;23.334;2023-04-16T03:26:32;938.4;;;9.2;89.8
40013;BME280;37387;42.672;23.334;2023-04-16T03:30:32;938.4;;;9.3;87.9
40013;BME280;37387;42.672;23.334;2023-04-16T03:31:32;938.4;;;9.2;87.6
40013;BME280;37387;42.672;23.334;2023-04-16T03:33:32;938.4;;;9.3;87.7
40013;BME280;37387;42.672;23.334;2023-04-16T03:34:32;938.4;;;9.4;86.9
40013;BME280;37387;42.672;23.334;2023-04-16T03:35:32;938.4;;;9.3;86.2
40013;BME280;37387;42.672;23.334;2023-04-16T03:36:32;938.4;;;9.2;86.2
40013;BME280;37387;42.672;23.334;2023-04-16T03:37:32;938.4;;;9.3;86.8
40013;BME280;37387;42.672;23.334;2023-04-16T03:39:32;938.4;;;9.4;86.9
40013;BME280;37387;42.672;23.334;2023-04-16T03:50:32;938.5;;;9.5;88.1
40013;BME280;37387;42.672;23.334;2023-04-16T03:55:33;938.5;;;9.6;87.7
40013;BME280;37387;42.672;23.334;2023-04-16T04:04:32;938.6;;;9.7;89.4
40013;BME280;37387;42.672;23.334;2023-04-16T04:05:34;938.6;;;9.6;89.0
40013;BME280;37387;42.672;23.334;2023-04-16T04:07:32;938.6;;;9.7;89.1
40013;BME280;37387;42.672;23.334;2023-04-16T04:08:32;938.6;;;9.8;88.2
40013;BME280;37387;42.672;23.334;2023-04-16T04:09:32;938.6;;;9.7;88.2
40013;BME280;37387;42.672;23.334;2023-04-16T04:10:32;938.6;;;9.8;88.0
40013;BME280;37387;42.672;23.334;2023-04-16T04:14:32;938.7;;;9.9;88.1
40013;BME280;37387;42.672;23.334;2023-04-16T04:20:32;938.7;;;9.8;87.6
40013;BME280;37387;42.672;23.334;2023-04-16T04:21:32;938.7;;;9.9;87.5
40013;BME280;37387;42.672;23.334;2023-04-16T04:25:32;938.7;;;9.8;87.3
40013;BME280;37387;42.672;23.334;2023-04-16T04:28:32;938.7;;;9.9;88.0
40013;BME280;37387;42.672;23.334;2023-04-16T04:30:32;938.8;;;10.0;87.4
40013;BME280;37387;42.672;23.334;2023-04-16T04:32:32;938.8;;;10.1;86.1
40013;BME280;37387;42.672;23.334;2023-04-16T04:33:32;938.8;;;9.9;84.6
40013;BME280;37387;42.672;23.334;2023-04-16T04:34:32;938.8;;;9.8;83.5
40013;BME280;37387;42.672;23.334;2023-04-16T04:38:32;938.8;;;9.9;85.0
40013;BME280;37387;42.672;23.334;2023-04-16T04:40:32;938.8;;;9.8;84.8
40013;BME280;37387;42.672;23.334;2023-04-16T04:42:32;938.9;;;9.7;85.3
40013;BME280;37387;42.672;23.334;2023-04-16T04:46:32;938.9;;;9.8;85.1
40013;BME280;37387;42.672;23.334;2023-04-16T04:48:32;938.9;;;9.7;84.3
40013;BME280;37387;42.672;23.334;2023-04-16T04:49:32;938.9;;;9.8;84.4
40013;BME280;37387;42.672;23.334;2023-04-16T04:52:32;938.9;;;9.9;83.1
40013;BME280;37387;42.672;23.334;2023-04-16T04:53:32;938.9;;;9.8;83.1
40013;BME280;37387;42.672;23.334;2023-04-16T04:55:32;938.9;;;9.9;83.4
40013;BME280;37387;42.672;23.334;2023-04-16T04:59:32;938.9;;;10.0;82.8
40013;BME280;37387;42.672;23.334;2023-04-16T05:04:32;939.0;;;10.1;82.5
40013;BME280;37387;42.672;23.334;2023-04-16T05:06:32;939.0;;;10.2;81.5
40013;BME280;37387;42.672;23.334;2023-04-16T05:11:32;938.9;;;10.3;80.3
40013;BME280;37387;42.672;23.334;2023-04-16T05:12:32;938.9;;;10.2;80.3
40013;BME280;37387;42.672;23.334;2023-04-16T05:15:32;938.9;;;10.3;79.9
40013;BME280;37387;42.672;23.334;2023-04-16T05:16:34;938.9;;;10.4;79.9
40013;BME280;37387;42.672;23.334;2023-04-16T05:18:32;938.9;;;10.5;79.0
40013;BME280;37387;42.672;23.334;2023-04-16T05:20:32;938.9;;;10.6;78.8
40013;BME280;37387;42.672;23.334;2023-04-16T05:21:32;938.9;;;10.7;78.7
40013;BME280;37387;42.672;23.334;2023-04-16T05:24:32;939.0;;;10.8;77.1
40013;BME280;37387;42.672;23.334;2023-04-16T05:25:32;938.9;;;10.9;76.7
40013;BME280;37387;42.672;23.334;2023-04-16T05:27:32;938.9;;;11.0;75.6
40013;BME280;37387;42.672;23.334;2023-04-16T05:28:32;938.9;;;11.1;75.2
40013;BME280;37387;42.672;23.334;2023-04-16T05:29:32;938.9;;;11.3;74.5
40013;BME280;37387;42.672;23.334;2023-04-16T05:30:32;938.9;;;11.4;73.0
40013;BME280;37387;42.672;23.334;2023-04-16T05:31:32;938.9;;;11.5;73.0
40013;BME280;37387;42.672;23.334;2023-04-16T05:32:32;938.9;;;11.6;71.9
40013;BME280;37387;42.672;23.334;2023-04-16T05:34:32;938.9;;;11.7;71.1
40013;BME280;37387;42.672;23.334;2023-04-16T05:35:32;938.9;;;11.8;70.7
40013;BME280;37387;42.672;23.334;2023-04-16T05:36:32;939.0;;;11.6;69.9
40013;BME280;37387;42.672;23.334;2023-04-16T05:37:32;939.0;;;11.5;70.4
40013;BME280;37387;42.672;23.334;2023-04-16T05:38:32;939.0;;;11.4;70.4
40013;BME280;37387;42.672;23.334;2023-04-16T05:39:32;938.9;;;11.6;70.9
40013;BME280;37387;42.672;23.334;2023-04-16T05:40:32;939.0;;;11.7;70.8
40013;BME280;37387;42.672;23.334;2023-04-16T05:41:32;939.0;;;11.9;70.2
40013;BME280;37387;42.672;23.334;2023-04-16T05:42:32;938.9;;;11.8;69.8
40013;BME280;37387;42.672;23.334;2023-04-16T05:47:32;938.9;;;11.6;69.0
40013;BME280;37387;42.672;23.334;2023-04-16T05:50:32;938.9;;;11.7;68.8
40013;BME280;37387;42.672;23.334;2023-04-16T05:51:32;938.9;;;11.6;68.7
40013;BME280;37387;42.672;23.334;2023-04-16T05:52:32;938.9;;;11.5;70.0
40013;BME280;37387;42.672;23.334;2023-04-16T05:53:32;938.9;;;11.6;70.0
40013;BME280;37387;42.672;23.334;2023-04-16T05:54:32;938.9;;;11.7;70.0
40013;BME280;37387;42.672;23.334;2023-04-16T05:55:32;938.9;;;11.6;69.4
40013;BME280;37387;42.672;23.334;2023-04-16T05:56:32;939.0;;;11.7;68.8
40013;BME280;37387;42.672;23.334;2023-04-16T05:57:32;939.0;;;11.8;68.0
40013;BME280;37387;42.672;23.334;2023-04-16T05:58:32;939.0;;;11.6;68.0
40013;BME280;37387;42.672;23.334;2023-04-16T06:01:32;939.0;;;11.7;69.5
40013;BME280;37387;42.672;23.334;2023-04-16T06:02:32;939.0;;;11.8;69.5
40013;BME280;37387;42.672;23.334;2023-04-16T06:04:32;939.0;;;11.9;69.3
40013;BME280;37387;42.672;23.334;2023-04-16T06:05:32;939.0;;;12.2;68.8
40013;BME280;37387;42.672;23.334;2023-04-16T06:06:32;939.0;;;12.3;67.2
40013;BME280;37387;42.672;23.334;2023-04-16T06:07:32;939.0;;;12.2;66.5
40013;BME280;37387;42.672;23.334;2023-04-16T06:08:32;939.0;;;12.5;66.5
40013;BME280;37387;42.672;23.334;2023-04-16T06:09:32;939.0;;;12.6;66.8
40013;BME280;37387;42.672;23.334;2023-04-16T06:10:32;939.0;;;12.9;65.7
40013;BME280;37387;42.672;23.334;2023-04-16T06:11:32;939.0;;;13.2;64.8
40013;BME280;37387;42.672;23.334;2023-04-16T06:12:32;939.0;;;13.3;64.0
40013;BME280;37387;42.672;23.334;2023-04-16T06:13:32;939.0;;;13.4;62.7
40013;BME280;37387;42.672;23.334;2023-04-16T06:14:32;939.0;;;13.5;62.0
40013;BME280;37387;42.672;23.334;2023-04-16T06:17:32;939.0;;;13.8;60.4
40013;BME280;37387;42.672;23.334;2023-04-16T06:19:32;938.9;;;13.9;59.5
40013;BME280;37387;42.672;23.334;2023-04-16T06:20:33;938.9;;;13.7;59.4
40013;BME280;37387;42.672;23.334;2023-04-16T06:21:33;939.0;;;13.8;59.2
40013;BME280;37387;42.672;23.334;2023-04-16T06:22:32;938.9;;;13.7;59.4
40013;BME280;37387;42.672;23.334;2023-04-16T06:23:32;938.9;;;13.8;59.4
40013;BME280;37387;42.672;23.334;2023-04-16T06:24:32;938.9;;;13.9;59.8
40013;BME280;37387;42.672;23.334;2023-04-16T06:25:32;939.0;;;14.1;59.2
40013;BME280;37387;42.672;23.334;2023-04-16T06:26:32;939.0;;;14.5;59.0
40013;BME280;37387;42.672;23.334;2023-04-16T06:27:32;939.0;;;14.6;57.5
40013;BME280;37387;42.672;23.334;2023-04-16T06:28:32;938.9;;;14.8;55.9
40013;BME280;37387;42.672;23.334;2023-04-16T06:29:32;939.0;;;14.7;55.9
40013;BME280;37387;42.672;23.334;2023-04-16T06:30:32;939.0;;;14.9;55.9
40013;BME280;37387;42.672;23.334;2023-04-16T06:31:32;939.0;;;14.7;55.5
40013;BME280;37387;42.672;23.334;2023-04-16T06:32:32;938.9;;;15.1;55.9
40013;BME280;37387;42.672;23.334;2023-04-16T06:33:32;938.9;;;15.3;54.0
40013;BME280;37387;42.672;23.334;2023-04-16T06:34:32;938.9;;;15.6;54.0
40013;BME280;37387;42.672;23.334;2023-04-16T06:35:32;938.9;;;15.7;53.0
40013;BME280;37387;42.672;23.334;2023-04-16T06:37:32;938.9;;;15.9;52.3
40013;BME280;37387;42.672;23.334;2023-04-16T06:38:32;938.9;;;15.8;51.8
40013;BME280;37387;42.672;23.334;2023-04-16T06:39:32;938.9;;;15.7;51.8
40013;BME280;37387;42.672;23.334;2023-04-16T06:40:32;938.9;;;15.8;52.2
40013;BME280;37387;42.672;23.334;2023-04-16T06:41:32;938.9;;;16.1;52.2
40013;BME280;37387;42.672;23.334;2023-04-16T06:42:32;938.9;;;16.6;51.3
40013;BME280;37387;42.672;23.334;2023-04-16T06:43:32;939.0;;;16.4;50.6
40013;BME280;37387;42.672;23.334;2023-04-16T06:44:32;939.0;;;16.6;50.6
40013;BME280;37387;42.672;23.334;2023-04-16T06:47:32;939.0;;;16.3;49.8
40013;BME280;37387;42.672;23.334;2023-04-16T06:48:32;938.9;;;15.7;51.0
40013;BME280;37387;42.672;23.334;2023-04-16T06:49:32;938.9;;;16.7;51.0
40013;BME280;37387;42.672;23.334;2023-04-16T06:50:32;939.0;;;17.1;48.2
40013;BME280;37387;42.672;23.334;2023-04-16T06:51:32;939.0;;;17.5;47.6
40013;BME280;37387;42.672;23.334;2023-04-16T06:52:32;939.0;;;17.8;47.6
40013;BME280;37387;42.672;23.334;2023-04-16T06:53:32;939.0;;;17.5;46.5
40013;BME280;37387;42.672;23.334;2023-04-16T06:54:32;939.0;;;17.2;46.4
40013;BME280;37387;42.672;23.334;2023-04-16T06:56:32;939.0;;;17.5;47.6
40013;BME280;37387;42.672;23.334;2023-04-16T06:57:32;939.0;;;17.7;47.3
40013;BME280;37387;42.672;23.334;2023-04-16T06:58:32;939.0;;;17.6;46.4
40013;BME280;37387;42.672;23.334;2023-04-16T07:00:32;939.0;;;17.9;46.5
40013;BME280;37387;42.672;23.334;2023-04-16T07:01:32;939.0;;;18.1;46.1
40013;BME280;37387;42.672;23.334;2023-04-16T07:02:32;939.0;;;17.9;45.3
40013;BME280;37387;42.672;23.334;2023-04-16T07:03:32;938.9;;;18.1;45.3
40013;BME280;37387;42.672;23.334;2023-04-16T07:05:32;938.9;;;17.7;45.2
40013;BME280;37387;42.672;23.334;2023-04-16T07:06:32;938.9;;;17.3;45.5
40013;BME280;37387;42.672;23.334;2023-04-16T07:07:32;938.9;;;16.7;47.7
40013;BME280;37387;42.672;23.334;2023-04-16T07:08:32;938.9;;;16.4;47.7
40013;BME280;37387;42.672;23.334;2023-04-16T07:09:32;938.9;;;16.0;48.7
40013;BME280;37387;42.672;23.334;2023-04-16T07:10:32;938.9;;;15.9;50.1
40013;BME280;37387;42.672;23.334;2023-04-16T07:11:32;938.9;;;15.6;50.8
40013;BME280;37387;42.672;23.334;2023-04-16T07:12:32;938.9;;;15.8;51.7
40013;BME280;37387;42.672;23.334;2023-04-16T07:13:32;938.9;;;16.1;51.1
40013;BME280;37387;42.672;23.334;2023-04-16T07:14:32;938.9;;;16.4;51.1
40013;BME280;37387;42.672;23.334;2023-04-16T07:15:32;939.0;;;16.7;50.7
40013;BME280;37387;42.672;23.334;2023-04-16T07:16:32;939.0;;;16.9;50.0
40013;BME280;37387;42.672;23.334;2023-04-16T07:18:32;939.0;;;17.0;48.9
40013;BME280;37387;42.672;23.334;2023-04-16T07:19:32;939.0;;;17.2;48.0
40013;BME280;37387;42.672;23.334;2023-04-16T07:20:32;939.0;;;17.1;48.0
40013;BME280;37387;42.672;23.334;2023-04-16T07:21:32;939.0;;;16.1;48.3
40013;BME280;37387;42.672;23.334;2023-04-16T07:22:32;939.0;;;15.6;52.3
40013;BME280;37387;42.672;23.334;2023-04-16T07:23:32;939.0;;;16.0;52.3
40013;BME280;37387;42.672;23.334;2023-04-16T07:24:32;939.0;;;16.4;51.6
40013;BME280;37387;42.672;23.334;2023-04-16T07:25:32;939.0;;;16.8;50.9
40013;BME280;37387;42.672;23.334;2023-04-16T07:26:32;939.1;;;17.1;49.7
40013;BME280;37387;42.672;23.334;2023-04-16T07:27:32;939.0;;;17.4;48.5
40013;BME280;37387;42.672;23.334;2023-04-16T07:29:32;939.0;;;17.1;48.4
40013;BME280;37387;42.672;23.334;2023-04-16T07:30:32;939.0;;;16.9;48.4
40013;BME280;37387;42.672;23.334;2023-04-16T07:31:32;939.0;;;16.8;48.7
40013;BME280;37387;42.672;23.334;2023-04-16T07:32:32;939.0;;;16.9;49.7
40013;BME280;37387;42.672;23.334;2023-04-16T07:37:32;939.0;;;17.2;49.2
40013;BME280;37387;42.672;23.334;2023-04-16T07:38:32;938.9;;;16.5;49.4
40013;BME280;37387;42.672;23.334;2023-04-16T07:39:32;938.9;;;16.3;49.4
40013;BME280;37387;42.672;23.334;2023-04-16T07:40:32;938.9;;;16.2;50.2
40013;BME280;37387;42.672;23.334;2023-04-16T07:41:32;938.9;;;16.5;50.5
40013;BME280;37387;42.672;23.334;2023-04-16T07:42:32;938.9;;;17.2;50.4
40013;BME280;37387;42.672;23.334;2023-04-16T07:43:32;938.9;;;17.8;48.9
40013;BME280;37387;42.672;23.334;2023-04-16T07:45:32;939.0;;;18.0;47.3
40013;BME280;37387;42.672;23.334;2023-04-16T07:46:32;939.0;;;18.4;47.3
40013;BME280;37387;42.672;23.334;2023-04-16T07:47:32;939.0;;;18.9;46.5
40013;BME280;37387;42.672;23.334;2023-04-16T07:48:32;939.0;;;18.5;45.5
40013;BME280;37387;42.672;23.334;2023-04-16T07:50:32;939.0;;;17.2;44.7
40013;BME280;37387;42.672;23.334;2023-04-16T07:51:32;939.0;;;17.8;47.7
40013;BME280;37387;42.672;23.334;2023-04-16T07:52:32;939.0;;;17.4;47.0
40013;BME280;37387;42.672;23.334;2023-04-16T07:53:32;939.0;;;17.1;47.4
40013;BME280;37387;42.672;23.334;2023-04-16T07:54:32;939.0;;;15.9;47.7
40013;BME280;37387;42.672;23.334;2023-04-16T07:55:32;938.9;;;16.2;51.0
40013;BME280;37387;42.672;23.334;2023-04-16T07:56:32;938.9;;;15.7;50.8
40013;BME280;37387;42.672;23.334;2023-04-16T07:57:32;938.9;;;15.1;52.2
40013;BME280;37387;42.672;23.334;2023-04-16T07:58:32;938.9;;;15.4;54.7
40013;BME280;37387;42.672;23.334;2023-04-16T08:01:32;938.9;;;15.8;53.8
40013;BME280;37387;42.672;23.334;2023-04-16T08:02:32;938.9;;;16.2;52.4
40013;BME280;37387;42.672;23.334;2023-04-16T08:03:32;938.9;;;15.7;52.4
40013;BME280;37387;42.672;23.334;2023-04-16T08:04:32;939.0;;;15.9;53.2
40013;BME280;37387;42.672;23.334;2023-04-16T08:05:32;939.0;;;16.5;52.7
40013;BME280;37387;42.672;23.334;2023-04-16T08:06:32;939.0;;;17.1;50.2
40013;BME280;37387;42.672;23.334;2023-04-16T08:07:32;939.0;;;17.5;50.2
40013;BME280;37387;42.672;23.334;2023-04-16T08:08:32;939.0;;;18.1;49.1
40013;BME280;37387;42.672;23.334;2023-04-16T08:09:32;939.0;;;17.7;47.9
40013;BME280;37387;42.672;23.334;2023-04-16T08:10:32;939.0;;;17.5;47.8
40013;BME280;37387;42.672;23.334;2023-04-16T08:11:32;938.9;;;18.4;47.8
40013;BME280;37387;42.672;23.334;2023-04-16T08:12:32;938.9;;;19.2;46.9
40013;BME280;37387;42.672;23.334;2023-04-16T08:13:32;938.9;;;20.0;44.6
40013;BME280;37387;42.672;23.334;2023-04-16T08:14:32;939.0;;;20.1;42.9
40013;BME280;37387;42.672;23.334;2023-04-16T08:15:32;938.9;;;20.0;42.1
40013;BME280;37387;42.672;23.334;2023-04-16T08:16:32;938.9;;;19.8;42.1
40013;BME280;37387;42.672;23.334;2023-04-16T08:17:32;938.9;;;20.4;41.5
40013;BME280;37387;42.672;23.334;2023-04-16T08:18:32;938.9;;;20.5;41.5
40013;BME280;37387;42.672;23.334;2023-04-16T08:19:32;938.9;;;21.0;41.3
40013;BME280;37387;42.672;23.334;2023-04-16T08:21:32;939.0;;;20.4;40.1
40013;BME280;37387;42.672;23.334;2023-04-16T08:22:32;938.9;;;20.6;41.4
40013;BME280;37387;42.672;23.334;2023-04-16T08:24:32;938.9;;;20.1;40.3
40013;BME280;37387;42.672;23.334;2023-04-16T08:25:32;938.9;;;20.4;41.5
40013;BME280;37387;42.672;23.334;2023-04-16T08:26:32;938.9;;;20.8;41.0
40013;BME280;37387;42.672;23.334;2023-04-16T08:27:32;938.9;;;21.5;40.5
40013;BME280;37387;42.672;23.334;2023-04-16T08:28:32;938.9;;;21.8;39.2
40013;BME280;37387;42.672;23.334;2023-04-16T08:29:32;938.9;;;20.6;40.6
40013;BME280;37387;42.672;23.334;2023-04-16T08:30:32;938.9;;;20.5;40.6
40013;BME280;37387;42.672;23.334;2023-04-16T08:31:32;938.8;;;18.8;43.9
40013;BME280;37387;42.672;23.334;2023-04-16T08:32:32;938.8;;;18.9;43.9
40013;BME280;37387;42.672;23.334;2023-04-16T08:34:32;938.7;;;18.7;44.9
40013;BME280;37387;42.672;23.334;2023-04-16T08:35:32;938.8;;;19.3;44.9
40013;BME280;37387;42.672;23.334;2023-04-16T08:36:32;938.8;;;20.0;44.0
40013;BME280;37387;42.672;23.334;2023-04-16T08:39:32;938.8;;;19.9;42.1
40013;BME280;37387;42.672;23.334;2023-04-16T08:40:33;938.8;;;20.4;42.4
40013;BME280;37387;42.672;23.334;2023-04-16T08:41:33;938.7;;;20.2;41.3
40013;BME280;37387;42.672;23.334;2023-04-16T08:42:33;938.7;;;19.9;41.7
40013;BME280;37387;42.672;23.334;2023-04-16T08:43:32;938.7;;;20.2;42.6
40013;BME280;37387;42.672;23.334;2023-04-16T08:44:33;938.7;;;19.5;41.7
40013;BME280;37387;42.672;23.334;2023-04-16T08:45:32;938.7;;;19.8;42.5
40013;BME280;37387;42.672;23.334;2023-04-16T08:46:32;938.7;;;19.9;42.5
40013;BME280;37387;42.672;23.334;2023-04-16T08:47:33;938.7;;;20.4;42.5
40013;BME280;37387;42.672;23.334;2023-04-16T08:48:33;938.7;;;19.9;41.6
40013;BME280;37387;42.672;23.334;2023-04-16T08:50:32;938.7;;;19.8;42.7
40013;BME280;37387;42.672;23.334;2023-04-16T08:51:33;938.7;;;19.7;42.9
40013;BME280;37387;42.672;23.334;2023-04-16T08:52:32;938.7;;;20.4;43.3
40013;BME280;37387;42.672;23.334;2023-04-16T08:53:34;938.7;;;21.1;41.0
40013;BME280;37387;42.672;23.334;2023-04-16T08:54:35;938.7;;;21.5;41.0
40013;BME280;37387;42.672;23.334;2023-04-16T08:55:35;938.7;;;21.3;40.2
40013;BME280;37387;42.672;23.334;2023-04-16T08:56:34;938.7;;;21.1;40.5
40013;BME280;37387;42.672;23.334;2023-04-16T08:57:36;938.7;;;20.8;40.5
40013;BME280;37387;42.672;23.334;2023-04-16T08:58:32;938.7;;;21.1;40.2
40013;BME280;37387;42.672;23.334;2023-04-16T08:59:32;938.7;;;20.9;40.2
40013;BME280;37387;42.672;23.334;2023-04-16T09:00:32;938.6;;;20.8;40.5
40013;BME280;37387;42.672;23.334;2023-04-16T09:01:32;938.6;;;20.6;40.7
40013;BME280;37387;42.672;23.334;2023-04-16T09:02:32;938.6;;;20.5;41.1
40013;BME280;37387;42.672;23.334;2023-04-16T09:03:32;938.6;;;20.1;41.4
40013;BME280;37387;42.672;23.334;2023-04-16T09:04:32;938.6;;;20.7;41.2
40013;BME280;37387;42.672;23.334;2023-04-16T09:05:32;938.6;;;20.4;41.2
40013;BME280;37387;42.672;23.334;2023-04-16T09:06:32;938.6;;;20.3;41.0
40013;BME280;37387;42.672;23.334;2023-04-16T09:07:32;938.5;;;20.0;41.6
40013;BME280;37387;42.672;23.334;2023-04-16T09:10:32;938.5;;;20.6;41.7
40013;BME280;37387;42.672;23.334;2023-04-16T09:11:32;938.5;;;21.0;41.7
40013;BME280;37387;42.672;23.334;2023-04-16T09:12:32;938.5;;;20.8;41.0
40013;BME280;37387;42.672;23.334;2023-04-16T09:13:32;938.5;;;20.2;41.0
40013;BME280;37387;42.672;23.334;2023-04-16T09:14:32;938.5;;;20.1;41.9
40013;BME280;37387;42.672;23.334;2023-04-16T09:15:32;938.5;;;19.2;42.1
40013;BME280;37387;42.672;23.334;2023-04-16T09:16:32;938.6;;;19.7;43.1
40013;BME280;37387;42.672;23.334;2023-04-16T09:17:33;938.6;;;19.9;43.1
40013;BME280;37387;42.672;23.334;2023-04-16T09:18:32;938.5;;;20.1;42.9
40013;BME280;37387;42.672;23.334;2023-04-16T09:19:33;938.5;;;19.8;43.1
40013;BME280;37387;42.672;23.334;2023-04-16T09:20:33;938.5;;;20.0;43.4
40013;BME280;37387;42.672;23.334;2023-04-16T09:21:32;938.5;;;20.4;43.4
40013;BME280;37387;42.672;23.334;2023-04-16T09:22:32;938.5;;;20.8;42.5
40013;BME280;37387;42.672;23.334;2023-04-16T09:24:32;938.5;;;21.1;41.2
40013;BME280;37387;42.672;23.334;2023-04-16T09:25:32;938.5;;;21.4;41.2
40013;BME280;37387;42.672;23.334;2023-04-16T09:26:32;938.5;;;21.2;40.4
40013;BME280;37387;42.672;23.334;2023-04-16T09:27:32;938.5;;;21.7;40.4
40013;BME280;37387;42.672;23.334;2023-04-16T09:28:40;938.6;;;22.0;39.6
40013;BME280;37387;42.672;23.334;2023-04-16T09:29:32;938.5;;;22.1;39.2
40013;BME280;37387;42.672;23.334;2023-04-16T09:30:32;938.5;;;22.0;39.3
40013;BME280;37387;42.672;23.334;2023-04-16T09:31:32;938.5;;;22.2;39.4
40013;BME280;37387;42.672;23.334;2023-04-16T09:32:32;938.5;;;22.4;39.1
40013;BME280;37387;42.672;23.334;2023-04-16T09:33:32;938.5;;;22.6;38.2
40013;BME280;37387;42.672;23.334;2023-04-16T09:34:32;938.5;;;22.4;38.2
40013;BME280;37387;42.672;23.334;2023-04-16T09:36:32;938.5;;;22.5;37.9
40013;BME280;37387;42.672;23.334;2023-04-16T09:37:32;938.5;;;22.9;38.1
40013;BME280;37387;42.672;23.334;2023-04-16T09:39:32;938.5;;;23.2;36.7
40013;BME280;37387;42.672;23.334;2023-04-16T09:40:32;938.5;;;23.5;36.4
40013;BME280;37387;42.672;23.334;2023-04-16T09:41:32;938.5;;;23.4;36.5
40013;BME280;37387;42.672;23.334;2023-04-16T09:42:33;938.5;;;24.1;36.5
40013;BME280;37387;42.672;23.334;2023-04-16T09:43:32;938.5;;;23.7;35.2
40013;BME280;37387;42.672;23.334;2023-04-16T09:44:33;938.5;;;24.0;35.4
40013;BME280;37387;42.672;23.334;2023-04-16T09:45:32;938.5;;;23.9;35.2
40013;BME280;37387;42.672;23.334;2023-04-16T09:46:33;938.5;;;22.0;35.2
40013;BME280;37387;42.672;23.334;2023-04-16T09:47:40;938.4;;;21.7;37.7
40013;BME280;37387;42.672;23.334;2023-04-16T09:48:32;938.4;;;21.3;38.7
40013;BME280;37387;42.672;23.334;2023-04-16T09:49:33;938.4;;;21.5;39.4
40013;BME280;37387;42.672;23.334;2023-04-16T09:50:32;938.4;;;21.3;39.5
40013;BME280;37387;42.672;23.334;2023-04-16T09:51:35;938.4;;;21.1;39.9
40013;BME280;37387;42.672;23.334;2023-04-16T09:53:32;938.4;;;21.4;39.6
40013;BME280;37387;42.672;23.334;2023-04-16T09:54:32;938.4;;;21.2;39.4
40013;BME280;37387;42.672;23.334;2023-04-16T09:55:32;938.4;;;20.7;39.4
40013;BME280;37387;42.672;23.334;2023-04-16T09:56:32;938.3;;;20.2;41.0
40013;BME280;37387;42.672;23.334;2023-04-16T09:57:32;938.3;;;19.7;42.0
40013;BME280;37387;42.672;23.334;2023-04-16T09:58:34;938.3;;;19.4;42.7
40013;BME280;37387;42.672;23.334;2023-04-16T09:59:34;938.3;;;19.7;42.7
40013;BME280;37387;42.672;23.334;2023-04-16T10:01:32;938.3;;;19.9;42.6
40013;BME280;37387;42.672;23.334;2023-04-16T10:02:32;938.3;;;19.7;42.2
40013;BME280;37387;42.672;23.334;2023-04-16T10:05:32;938.3;;;19.9;42.5
40013;BME280;37387;42.672;23.334;2023-04-16T10:06:32;938.2;;;19.7;42.1
40013;BME280;37387;42.672;23.334;2023-04-16T10:07:33;938.2;;;20.0;42.1
40013;BME280;37387;42.672;23.334;2023-04-16T10:08:32;938.2;;;19.9;41.9
40013;BME280;37387;42.672;23.334;2023-04-16T10:10:32;938.2;;;20.1;42.0
40013;BME280;37387;42.672;23.334;2023-04-16T10:11:32;938.2;;;19.9;42.0
40013;BME280;37387;42.672;23.334;2023-04-16T10:13:32;938.1;;;19.1;42.0
40013;BME280;37387;42.672;23.334;2023-04-16T10:16:32;938.1;;;18.8;43.6
40013;BME280;37387;42.672;23.334;2023-04-16T10:17:32;938.1;;;19.4;44.2
40013;BME280;37387;42.672;23.334;2023-04-16T10:18:32;938.1;;;19.5;43.5